createdAt,value
2022-11-21T00:16:22.431Z,94.2
2022-11-21T00:36:22.346Z,93.9
2022-11-21T00:56:17.347Z,94
2022-11-21T01:16:24.376Z,94.2
2022-11-21T01:36:22.329Z,94
2022-11-21T01:56:22.309Z,94.1
2022-11-21T02:36:24.299Z,94
2022-11-21T02:56:22.263Z,94
2022-11-21T03:16:17.277Z,94.1
2022-11-21T03:36:29.283Z,94.1
2022-11-21T03:56:24.243Z,94.4
2022-11-21T04:16:17.190Z,94.6
2022-11-21T04:36:22.178Z,94.9
2022-11-21T04:56:17.149Z,95.3
2022-11-21T05:16:17.134Z,95.7
2022-11-21T05:36:29.166Z,95.9
2022-11-21T05:56:22.077Z,96.2
2022-11-21T06:16:17.091Z,96.4
2022-11-21T06:36:22.045Z,96.4
2022-11-21T06:56:29.043Z,96.2
2022-11-21T07:16:21.988Z,96.3
2022-11-21T07:36:21.996Z,96.4
2022-11-21T07:56:22.019Z,96.2
2022-11-21T08:16:21.936Z,95.8
2022-11-21T08:56:21.891Z,94
2022-11-21T09:16:21.873Z,93.8
2022-11-21T09:56:16.940Z,95.1
2022-11-21T10:16:21.826Z,95.6
2022-11-21T10:36:16.802Z,95.7
2022-11-21T10:56:21.771Z,94.6
2022-11-21T11:36:21.712Z,93.8
2022-11-21T11:56:21.712Z,93.9
2022-11-21T12:16:21.702Z,93.4
2022-11-21T12:36:21.679Z,92.8
2022-11-21T12:56:21.691Z,92.4
2022-11-21T13:16:21.641Z,91.2
2022-11-21T13:36:16.630Z,89.7
2022-11-21T13:56:21.581Z,89.6
2022-11-21T14:16:21.572Z,88.9
2022-11-21T14:36:16.546Z,89.8
2022-11-21T14:56:21.498Z,90.7
2022-11-21T15:16:21.540Z,91.7
2022-11-21T15:56:22.921Z,93.4
2022-11-21T16:16:21.443Z,94.1
2022-11-21T16:36:21.412Z,94.1
2022-11-21T16:56:16.421Z,94.6
2022-11-21T17:16:21.375Z,94.5
2022-11-21T17:36:21.353Z,94.4
2022-11-21T17:56:16.372Z,93.7
2022-11-21T18:16:21.331Z,93.5
2022-11-21T18:36:21.284Z,92.7
2022-11-21T18:56:21.277Z,92
2022-11-21T19:16:16.275Z,91.1
2022-11-21T19:36:21.369Z,90.8
2022-11-21T19:56:21.205Z,91
2022-11-21T20:16:21.174Z,91.3
2022-11-21T20:36:21.166Z,91.1
2022-11-21T20:56:21.237Z,91.5
2022-11-21T21:16:21.114Z,92.1
2022-11-21T21:36:16.115Z,92.6
2022-11-21T21:56:21.082Z,93.2
2022-11-21T22:16:21.049Z,93.9
2022-11-21T22:36:21.048Z,94.4
2022-11-21T22:56:21.019Z,94.8
2022-11-21T23:16:21.031Z,94.9
2022-11-21T23:36:20.986Z,95
2022-11-21T23:56:20.982Z,95
